Data for 03/05/2005

Time Sea-Level Adjusted Pressure Absolute Pressure Temperature Relative Humidity Dew Point   
(mb) (inHg) (mb) (inHg) (C) (F) (%) (C) (F)
00:05 1021 30.15 850 25.1 1.3 34.3 57 -6.2 20.8
00:10 1021 30.15 850 25.1 1.1 34 57 -6.4 20.4
00:15 1021 30.15 850 25.1 1.1 34 56 -6.8 19.7
00:20 1021 30.15 851 25.13 1.9 35.5 52 -7 19.4
00:25 1021 30.15 851 25.13 2 35.6 52 -6.8 19.8
00:30 1021 30.15 851 25.13 1.7 35.1 53 -6.7 19.9
00:35 1021 30.15 851 25.13 1.6 34.9 54 -6.7 20
00:40 1022 30.18 851 25.13 1 33.8 56 -6.8 19.8
00:45 1022 30.18 851 25.13 0.7 33.2 58 -6.7 19.9
00:50 1022 30.18 851 25.13 0.4 32.7 59 -6.7 19.9
00:55 1022 30.18 851 25.13 0.3 32.5 60 -6.7 20
01:00 1022 30.18 851 25.13 0.4 32.7 59 -6.7 19.9
01:05 1022 30.18 851 25.13 0.3 32.6 59 -6.8 19.8
01:10 1022 30.18 851 25.13 0.4 32.7 58 -6.8 19.7
01:15 1022 30.18 851 25.13 0.7 33.2 58 -6.7 20
01:20 1022 30.18 851 25.13 0.7 33.3 58 -6.6 20.1
01:25 1022 30.18 851 25.13 0.7 33.3 58 -6.7 19.9
01:30 1022 30.18 851 25.13 0.6 33.1 59 -6.6 20.2
01:35 1022 30.18 851 25.13 0.3 32.6 60 -6.5 20.3
01:40 1022 30.18 851 25.13 -0 32 62 -6.4 20.5
01:45 1022 30.18 851 25.13 0 32.1 60 -6.9 19.7
01:50 1022 30.18 851 25.13 0.5 33 58 -6.8 19.7
01:55 1022 30.18 851 25.13 0.8 33.4 57 -6.8 19.8
02:00 1022 30.18 851 25.13 0.5 33 59 -6.7 20
02:05 1022 30.18 851 25.13 0.5 33 57 -7 19.3
02:10 1022 30.18 851 25.13 0.7 33.2 59 -6.5 20.2
02:15 1022 30.18 851 25.13 0.7 33.2 56 -7.1 19.3
02:20 1022 30.18 851 25.13 0.9 33.6 58 -6.5 20.3
02:25 1022 30.18 851 25.13 0.9 33.6 57 -6.8 19.8
02:30 1022 30.18 851 25.13 0.8 33.5 59 -6.4 20.6
02:35 1022 30.18 851 25.13 0.5 32.9 59 -6.6 20.1
02:40 1022 30.18 851 25.13 0.7 33.3 58 -6.6 20.1
02:45 1022 30.18 851 25.13 0.7 33.3 57 -6.7 19.9
02:50 1022 30.18 851 25.13 0.8 33.5 58 -6.5 20.2
02:55 1022 30.18 851 25.13 0.6 33 59 -6.6 20.1
03:00 1022 30.18 851 25.13 0.8 33.5 58 -6.6 20.1
03:05 1022 30.18 851 25.13 0.8 33.5 60 -6.2 20.9
03:10 1022 30.18 851 25.13 0.3 32.6 60 -6.5 20.3
03:15 1022 30.18 851 25.13 0.1 32.2 63 -6.1 21
03:20 1022 30.18 851 25.13 -0 31.9 63 -6.2 20.8
03:25 1022 30.18 851 25.13 -0.1 31.7 64 -6.2 20.9
03:30 1022 30.18 851 25.13 -0.4 31.3 64 -6.4 20.5
03:35 1022 30.18 851 25.13 -0.4 31.3 62 -6.8 19.8
03:40 1022 30.18 851 25.13 0 32 59 -7.1 19.3
03:45 1022 30.18 851 25.13 0.1 32.3 60 -6.8 19.7
03:50 1022 30.18 851 25.13 -0.1 31.7 63 -6.4 20.5
03:55 1022 30.18 851 25.13 -0.5 31 64 -6.5 20.2
04:00 1022 30.18 851 25.13 -0.6 31 63 -6.7 19.9
04:05 1022 30.18 851 25.13 -0.5 31.2 62 -7 19.5
04:10 1022 30.18 851 25.13 -0.2 31.7 60 -7 19.5
04:15 1022 30.18 851 25.13 -0 32 60 -6.9 19.7
04:20 1022 30.18 851 25.13 0.1 32.2 59 -7.1 19.3
04:25 1022 30.18 851 25.13 0.3 32.5 59 -6.9 19.6
04:30 1022 30.18 851 25.13 0.3 32.6 60 -6.6 20.1
04:35 1022 30.18 851 25.13 0.2 32.4 60 -6.5 20.2
04:40 1022 30.18 851 25.13 -0.1 31.8 62 -6.5 20.3
04:45 1022 30.18 851 25.13 -0.4 31.2 63 -6.6 20.1
04:50 1022 30.18 851 25.13 -0.4 31.3 61 -7 19.4
04:55 1022 30.18 851 25.13 -0.2 31.7 60 -7 19.4
05:00 1022 30.18 851 25.13 -0.1 31.9 60 -6.9 19.6
05:05 1022 30.18 851 25.13 -0.1 31.8 62 -6.5 20.3
05:10 1022 30.18 851 25.13 -0.1 31.8 62 -6.5 20.3
05:15 1022 30.18 851 25.13 0 32 61 -6.5 20.2
05:20 1022 30.18 851 25.13 0.6 33.1 58 -6.7 20
05:25 1022 30.18 851 25.13 1.1 33.9 58 -6.4 20.6
05:30 1022 30.18 851 25.13 0.8 33.5 60 -6.2 20.8
05:35 1022 30.18 851 25.13 0.4 32.8 61 -6.2 20.8
05:40 1022 30.18 851 25.13 0.2 32.3 61 -6.4 20.5
05:45 1022 30.18 851 25.13 -0.3 31.4 64 -6.4 20.5
05:50 1022 30.18 851 25.13 -0.8 30.6 67 -6.2 20.8
05:55 1022 30.18 851 25.13 -1.3 29.7 68 -6.4 20.5
06:00 1022 30.18 851 25.13 -1.3 29.6 69 -6.3 20.6
06:05 1022 30.18 851 25.13 -1.2 29.8 68 -6.3 20.6
06:10 1022 30.18 851 25.13 -0.9 30.4 67 -6.2 20.8
06:15 1022 30.18 851 25.13 -0.4 31.3 65 -6.2 20.8
06:20 1022 30.18 851 25.13 -0.3 31.4 65 -6.1 21
06:25 1022 30.18 851 25.13 -0.4 31.2 66 -6.1 21.1
06:30 1022 30.18 851 25.13 -0.3 31.5 65 -6.1 21
06:35 1022 30.18 851 25.13 -0.1 31.9 65 -5.9 21.4
06:40 1022 30.18 851 25.13 -0.5 31.2 68 -5.7 21.7
06:45 1022 30.18 851 25.13 -1.4 29.5 71 -5.9 21.3
06:50 1022 30.18 851 25.13 -1.3 29.6 70 -6.1 20.9
06:55 1022 30.18 852 25.16 -0.6 31 66 -6.2 20.8
07:00 1022 30.18 852 25.16 -0.3 31.5 65 -6.1 21
07:05 1023 30.21 852 25.16 -0.3 31.4 65 -6.2 20.9
07:10 1023 30.21 852 25.16 -0.7 30.8 67 -6.1 21.1
07:15 1023 30.21 852 25.16 -1.2 29.8 70 -6 21.2
07:20 1023 30.21 852 25.16 -1.2 29.8 69 -6.2 20.8
07:25 1023 30.21 852 25.16 -0.8 30.6 67 -6.2 20.9
07:30 1023 30.21 852 25.16 -0.8 30.5 66 -6.5 20.4
07:35 1023 30.21 852 25.16 -0.4 31.3 64 -6.3 20.7
07:40 1023 30.21 852 25.16 -0.3 31.5 64 -6.2 20.8
07:45 1023 30.21 852 25.16 -0.3 31.5 64 -6.3 20.7
07:50 1023 30.21 852 25.16 -0.2 31.6 64 -6.2 20.8
07:55 1023 30.21 852 25.16 0.2 32.4 62 -6.2 20.8
08:00 1023 30.21 852 25.16 0.7 33.2 60 -6.1 21
08:05 1023 30.21 852 25.16 1 33.8 60 -5.8 21.5
08:10 1023 30.21 852 25.16 1.6 34.9 59 -5.6 22
08:15 1023 30.21 852 25.16 2.1 35.7 56 -5.8 21.6
08:20 1023 30.21 852 25.16 3.1 37.7 53 -5.4 22.3
08:25 1023 30.21 852 25.16 3.6 38.5 51 -5.5 22.1
08:30 1023 30.21 853 25.19 4.1 39.4 50 -5.5 22.1
08:35 1023 30.21 853 25.19 3.2 37.8 53 -5.5 22.1
08:40 1023 30.21 853 25.19 3.6 38.5 49 -6.1 21.1
08:45 1023 30.21 853 25.19 4.4 40 48 -5.8 21.6
08:50 1023 30.21 853 25.19 4.9 40.8 46 -5.8 21.6
08:55 1023 30.21 853 25.19 4.8 40.7 46 -5.7 21.7
09:00 1023 30.21 853 25.19 5.2 41.3 46 -5.6 21.9
09:05 1023 30.21 853 25.19 5.2 41.4 46 -5.4 22.4
09:10 1023 30.21 853 25.19 5.5 41.9 47 -4.9 23.2
09:15 1023 30.21 853 25.19 5.7 42.2 47 -4.7 23.5
09:20 1023 30.21 853 25.19 6 42.7 46 -4.9 23.2
09:25 1023 30.21 853 25.19 6.3 43.4 43 -5.2 22.6
09:30 1023 30.21 853 25.19 6.9 44.4 42 -5.2 22.6
09:35 1023 30.21 853 25.19 6.7 44.1 40 -5.8 21.6
09:40 1023 30.21 853 25.19 6.9 44.4 40 -5.8 21.6
09:45 1024 30.24 853 25.19 6.9 44.4 40 -5.7 21.7
09:50 1024 30.24 853 25.19 7.2 44.9 39 -5.7 21.7
09:55 1023 30.21 853 25.19 7.4 45.3 39 -5.7 21.8
10:00 1023 30.21 853 25.19 8 46.3 37 -5.7 21.8
10:05 1023 30.21 853 25.19 8 46.5 36 -6 21.3
10:10 1023 30.21 853 25.19 8.4 47.1 35 -6.2 20.9
10:15 1023 30.21 852 25.16 8.6 47.5 35 -6.1 21
10:20 1023 30.21 852 25.16 8.8 47.9 34 -6.1 21
10:25 1023 30.21 853 25.19 9.1 48.5 33 -6.2 20.8
10:30 1023 30.21 853 25.19 9.7 49.4 32 -6.2 20.8
10:35 1023 30.21 853 25.19 9.9 49.8 31 -6.2 20.8
10:40 1023 30.21 853 25.19 9.2 48.6 34 -5.9 21.4
10:45 1023 30.21 852 25.16 8.6 47.4 34 -6.2 20.8
10:50 1023 30.21 852 25.16 9 48.2 33 -6.5 20.3
10:55 1023 30.21 852 25.16 8.8 47.8 35 -6 21.3
11:00 1023 30.21 852 25.16 8.4 47 34 -6.5 20.2
11:05 1023 30.21 852 25.16 8.6 47.6 34 -6.2 20.9
11:10 1023 30.21 852 25.16 9.4 48.9 32 -6.4 20.6
11:15 1023 30.21 852 25.16 9.6 49.2 32 -6.1 21
11:20 1023 30.21 852 25.16 9.2 48.6 33 -6.3 20.7
11:25 1023 30.21 852 25.16 9.9 49.8 31 -6.4 20.4
11:30 1023 30.21 852 25.16 10.2 50.4 31 -6 21.2
11:35 1023 30.21 852 25.16 10.5 50.9 30 -6.4 20.4
11:40 1023 30.21 852 25.16 10.9 51.7 29 -6.3 20.7
11:45 1023 30.21 852 25.16 11 51.7 30 -6.1 21
11:50 1023 30.21 852 25.16 10.9 51.7 29 -6.3 20.7
11:55 1023 30.21 852 25.16 9.9 49.8 32 -6.2 20.8
12:00 1023 30.21 852 25.16 10.3 50.5 30 -6.5 20.2
12:05 1023 30.21 852 25.16 10.8 51.5 29 -6.6 20.2
12:10 1023 30.21 852 25.16 11.4 52.4 29 -6.1 21.1
12:15 1022 30.18 852 25.16 11.4 52.5 28 -6.3 20.6
12:20 1022 30.18 852 25.16 11.5 52.6 29 -5.8 21.5
12:25 1022 30.18 851 25.13 10.7 51.3 29 -6.7 19.9
12:30 1022 30.18 851 25.13 11 51.7 28 -6.7 19.9
12:35 1022 30.18 851 25.13 10.8 51.4 29 -6.3 20.6
12:40 1022 30.18 851 25.13 11.3 52.3 28 -6.7 19.9
12:45 1022 30.18 851 25.13 12 53.6 26 -6.9 19.5
12:50 1022 30.18 851 25.13 11.9 53.5 27 -6.4 20.5
12:55 1022 30.18 851 25.13 11.2 52.2 27 -6.9 19.5
13:00 1022 30.18 851 25.13 11.9 53.4 26 -6.7 19.9
13:05 1022 30.18 851 25.13 11.6 52.9 26 -7.1 19.2
13:10 1022 30.18 851 25.13 11.8 53.2 27 -6.5 20.3
13:15 1021 30.15 851 25.13 11 51.8 27 -7.4 18.6
13:20 1021 30.15 851 25.13 11.4 52.5 26 -7.5 18.4
13:25 1021 30.15 851 25.13 11.3 52.4 26 -7.6 18.4
13:30 1021 30.15 851 25.13 11.6 53 25 -7.8 17.9
13:35 1021 30.15 850 25.1 12.8 55 23 -7.8 18
13:40 1021 30.15 850 25.1 13 55.3 24 -7 19.4
13:45 1021 30.15 850 25.1 12.1 53.8 26 -6.6 20.2
13:50 1021 30.15 850 25.1 12.3 54.1 24 -7.5 18.6
13:55 1021 30.15 850 25.1 12.7 54.8 24 -7.3 18.8
14:00 1021 30.15 850 25.1 11.4 52.5 26 -7.3 18.8
14:05 1021 30.15 850 25.1 11.5 52.6 27 -6.9 19.6
14:10 1021 30.15 850 25.1 12.3 54.2 24 -7.7 18.2
14:15 1021 30.15 850 25.1 12.7 54.8 24 -7.3 18.9
14:20 1021 30.15 850 25.1 12.2 53.9 26 -7 19.4
14:25 1021 30.15 850 25.1 12.5 54.5 24 -7.2 19
14:30 1021 30.15 850 25.1 12.8 55.1 25 -6.8 19.8
14:35 1021 30.15 850 25.1 12.6 54.7 25 -7.1 19.2
14:40 1021 30.15 850 25.1 13.2 55.7 24 -6.7 19.9
14:45 1021 30.15 850 25.1 13.4 56.2 24 -6.6 20.2
14:50 1021 30.15 850 25.1 12.8 55.1 26 -6.4 20.6
14:55 1021 30.15 850 25.1 12.9 55.2 23 -7.6 18.4
15:00 1020 30.12 850 25.1 13.6 56.4 23 -7.1 19.2
15:05 1020 30.12 850 25.1 13.5 56.3 23 -7.1 19.3
15:10 1020 30.12 850 25.1 13.1 55.7 23 -7.3 18.8
15:15 1020 30.12 850 25.1 13.6 56.5 22 -7.5 18.5
15:20 1020 30.12 850 25.1 13.8 56.8 22 -7.3 18.9
15:25 1020 30.12 850 25.1 13.8 56.8 23 -7.1 19.2
15:30 1020 30.12 849 25.07 14 57.3 22 -7.5 18.5
15:35 1020 30.12 849 25.07 13.5 56.2 23 -7.1 19.2
15:40 1020 30.12 849 25.07 13.1 55.6 22 -7.8 17.9
15:45 1020 30.12 849 25.07 13.8 56.8 21 -7.9 17.8
15:50 1020 30.12 849 25.07 13.3 56 23 -7.5 18.6
15:55 1020 30.12 849 25.07 13.3 55.9 22 -8 17.5
16:00 1020 30.12 849 25.07 13.8 56.8 22 -7.8 18
16:05 1020 30.12 849 25.07 13.6 56.5 22 -7.9 17.7
16:10 1020 30.12 849 25.07 13.8 56.9 21 -8 17.7
16:15 1020 30.12 849 25.07 14.1 57.3 21 -7.7 18.2
16:20 1020 30.12 849 25.07 13.6 56.4 23 -7.4 18.7
16:25 1020 30.12 849 25.07 12.7 54.9 24 -7.6 18.4
16:30 1020 30.12 849 25.07 12.5 54.5 23 -8.3 17.1
16:35 1020 30.12 849 25.07 13.3 56 22 -8.1 17.4
16:40 1020 30.12 849 25.07 13.6 56.5 22 -7.9 17.8
16:45 1020 30.12 849 25.07 13 55.4 22 -8.1 17.4
16:50 1020 30.12 849 25.07 13 55.5 22 -8.2 17.2
16:55 1020 30.12 849 25.07 13.3 55.9 22 -7.9 17.8
17:00 1020 30.12 849 25.07 12.3 54.2 23 -7.9 17.7
17:05 1020 30.12 849 25.07 12.9 55.2 22 -8.4 16.9
17:10 1020 30.12 849 25.07 12.6 54.7 23 -8.1 17.4
17:15 1020 30.12 849 25.07 12.1 53.7 23 -8.2 17.2
17:20 1020 30.12 849 25.07 12.3 54.1 23 -8.5 16.8
17:25 1020 30.12 849 25.07 12.3 54.1 23 -8.3 17.1
17:30 1020 30.12 849 25.07 12.3 54.1 23 -8.4 17
17:35 1020 30.12 849 25.07 12.8 55.1 22 -8.3 17
17:40 1020 30.12 849 25.07 12.8 55 22 -8.4 16.9
17:45 1020 30.12 849 25.07 12.8 55.1 22 -8.2 17.3
17:50 1020 30.12 849 25.07 12.4 54.2 23 -8.2 17.2
17:55 1020 30.12 849 25.07 12.3 54.2 23 -8.2 17.3
18:00 1020 30.12 849 25.07 12.3 54.1 23 -8.1 17.4
18:05 1020 30.12 849 25.07 12.1 53.9 24 -8 17.6
18:10 1020 30.12 849 25.07 11.8 53.3 25 -7.7 18.1
18:15 1020 30.12 849 25.07 11.4 52.5 25 -7.9 17.8
18:20 1020 30.12 849 25.07 11 51.8 26 -8 17.7
18:25 1020 30.12 849 25.07 10.6 51.1 29 -6.6 20
18:30 1020 30.12 849 25.07 9.3 48.7 30 -7.2 19
18:35 1020 30.12 849 25.07 9 48.1 32 -6.9 19.5
18:40 1020 30.12 849 25.07 8.3 46.9 38 -5.4 22.4
18:45 1020 30.12 849 25.07 7.6 45.6 40 -5.3 22.5
18:50 1020 30.12 849 25.07 7.1 44.7 39 -5.9 21.4
18:55 1020 30.12 849 25.07 7 44.6 39 -6 21.2
19:00 1020 30.12 849 25.07 6.7 44 40 -5.9 21.4
19:05 1020 30.12 849 25.07 6.2 43.1 41 -6.2 20.8
19:10 1020 30.12 849 25.07 6.1 43 41 -6.1 21
19:15 1020 30.12 849 25.07 5.9 42.6 42 -6.2 20.9
19:20 1020 30.12 849 25.07 6 42.8 41 -6.3 20.6
19:25 1020 30.12 849 25.07 6 42.9 41 -6.4 20.5
19:30 1020 30.12 849 25.07 5.9 42.7 41 -6.2 20.8
19:35 1020 30.12 849 25.07 5.7 42.2 41 -6.6 20.1
19:40 1020 30.12 849 25.07 5.5 41.9 42 -6.5 20.3
19:45 1020 30.12 849 25.07 5.3 41.6 42 -6.5 20.4
19:50 1020 30.12 849 25.07 5.5 41.8 41 -6.8 19.7
19:55 1020 30.12 849 25.07 5.7 42.2 40 -7 19.4
20:00 1020 30.12 849 25.07 5.7 42.2 39 -7.1 19.3
20:05 1020 30.12 849 25.07 5.7 42.2 38 -7.4 18.6
20:10 1020 30.12 849 25.07 6.1 42.9 37 -7.5 18.4
20:15 1020 30.12 849 25.07 6.3 43.3 36 -7.8 17.9
20:20 1020 30.12 849 25.07 6.4 43.6 35 -7.9 17.8
20:25 1020 30.12 849 25.07 6.4 43.5 37 -7.4 18.6
20:30 1020 30.12 849 25.07 6 42.8 39 -7.1 19.3
20:35 1020 30.12 849 25.07 5.6 42 39 -7.3 18.9
20:40 1020 30.12 849 25.07 5.6 42 38 -7.6 18.2
20:45 1020 30.12 849 25.07 5.7 42.2 36 -8.1 17.4
20:50 1020 30.12 849 25.07 5.8 42.4 37 -7.7 18.1
20:55 1020 30.12 850 25.1 5.8 42.4 36 -8.2 17.3
21:00 1020 30.12 850 25.1 5.9 42.6 35 -8.3 17
21:05 1020 30.12 850 25.1 6 42.8 35 -8.3 17
21:10 1020 30.12 850 25.1 6.1 42.9 35 -8.3 17
21:15 1020 30.12 850 25.1 6.1 43.1 35 -8.1 17.4
21:20 1020 30.12 850 25.1 6.2 43.2 35 -8 17.6
21:25 1021 30.15 850 25.1 6.2 43.2 36 -7.9 17.8
21:30 1021 30.15 850 25.1 6.4 43.4 36 -7.5 18.5
21:35 1021 30.15 850 25.1 6 42.8 40 -6.8 19.8
21:40 1021 30.15 850 25.1 5.5 42 41 -6.7 19.9
21:45 1021 30.15 850 25.1 5.4 41.8 41 -6.7 20
21:50 1021 30.15 850 25.1 5.4 41.8 42 -6.6 20.1
21:55 1021 30.15 850 25.1 5.3 41.6 44 -5.9 21.4
22:00 1021 30.15 850 25.1 4.6 40.2 46 -6 21.1
22:05 1021 30.15 850 25.1 4.6 40.3 45 -6.3 20.6
22:10 1021 30.15 850 25.1 4.6 40.3 46 -5.9 21.3
22:15 1021 30.15 850 25.1 4.4 39.9 47 -6 21.3
22:20 1021 30.15 850 25.1 4.4 40 47 -5.9 21.3
22:25 1021 30.15 850 25.1 4.6 40.2 45 -6.2 20.8
22:30 1021 30.15 850 25.1 4.8 40.7 45 -6.2 20.9
22:35 1021 30.15 850 25.1 4.8 40.7 44 -6.3 20.7
22:40 1021 30.15 850 25.1 4.9 40.9 45 -6.1 20.9
22:45 1021 30.15 850 25.1 5.1 41.2 43 -6.3 20.6
22:50 1021 30.15 850 25.1 5 41 45 -6.1 21
22:55 1021 30.15 850 25.1 4.7 40.5 44 -6.6 20.1
23:00 1021 30.15 850 25.1 4.6 40.3 43 -6.9 19.6
23:05 1021 30.15 850 25.1 4.6 40.2 44 -6.6 20.2
23:10 1021 30.15 850 25.1 4.3 39.8 45 -6.5 20.2
23:15 1021 30.15 850 25.1 4 39.3 45 -6.8 19.8
23:20 1021 30.15 850 25.1 4.2 39.5 46 -6.4 20.5
23:25 1021 30.15 850 25.1 4.1 39.4 47 -6.4 20.6
23:30 1021 30.15 850 25.1 4.1 39.4 46 -6.5 20.3
23:35 1021 30.15 850 25.1 4.1 39.3 46 -6.4 20.4
23:40 1020 30.12 850 25.1 4.2 39.5 48 -5.9 21.3
23:45 1020 30.12 850 25.1 4.1 39.4 47 -6.1 21.1
23:50 1020 30.12 850 25.1 3.9 39 49 -5.9 21.4
23:55 1020 30.12 849 25.07 4 39.2 48 -6.1 21.1
24:00 1020 30.12 849 25.07 4.3 39.7 47 -6 21.1